createdAt,value
2022-11-04T00:02:09.185Z,77.40
2022-11-04T00:04:36.520Z,77.59
2022-11-04T00:07:23.198Z,77.71
2022-11-04T00:09:49.843Z,77.78
2022-11-04T00:12:25.378Z,78.00
2022-11-04T00:14:52.043Z,78.20
2022-11-04T00:17:24.523Z,78.00
2022-11-04T00:20:12.393Z,78.35
2022-11-04T00:22:59.565Z,78.28
2022-11-04T00:25:44.888Z,78.26
2022-11-04T00:28:35.716Z,78.35
2022-11-04T00:31:24.123Z,78.49
2022-11-04T00:33:52.903Z,78.59
2022-11-04T00:36:20.232Z,78.41
2022-11-04T00:38:47.156Z,78.56
2022-11-04T00:41:26.863Z,78.53
2022-11-04T00:43:54.482Z,78.61
2022-11-04T00:46:21.383Z,78.84
2022-11-04T00:48:48.338Z,78.91
2022-11-04T00:51:15.305Z,78.54
2022-11-04T00:53:41.991Z,78.82
2022-11-04T00:56:08.595Z,78.76
2022-11-04T00:58:35.195Z,78.58
2022-11-04T01:01:07.974Z,78.35
2022-11-04T01:03:34.676Z,78.16
2022-11-04T01:06:01.255Z,78.54
2022-11-04T01:08:27.869Z,78.26
2022-11-04T01:10:54.517Z,78.21
2022-11-04T01:13:21.115Z,78.22
2022-11-04T01:15:47.908Z,78.64
2022-11-04T01:18:14.711Z,78.32
2022-11-04T01:20:41.322Z,78.24
2022-11-04T01:23:07.857Z,78.30
2022-11-04T01:25:34.633Z,78.52
2022-11-04T01:28:01.229Z,78.14
2022-11-04T01:30:27.775Z,77.83
2022-11-04T01:32:54.391Z,78.17
2022-11-04T01:35:21.040Z,77.96
2022-11-04T01:37:47.616Z,78.26
2022-11-04T01:40:14.238Z,77.99
2022-11-04T01:42:40.879Z,77.82
2022-11-04T01:45:14.775Z,77.87
2022-11-04T01:47:44.677Z,77.79
2022-11-04T01:50:16.042Z,78.16
2022-11-04T01:52:48.710Z,78.26
2022-11-04T01:55:26.063Z,78.54
2022-11-04T01:57:58.624Z,78.73
2022-11-04T02:00:25.305Z,78.47
2022-11-04T02:02:59.106Z,78.58
2022-11-04T02:05:26.068Z,78.82
2022-11-04T02:07:57.994Z,78.57
2022-11-04T02:10:30.263Z,78.43
2022-11-04T02:13:00.021Z,78.39
2022-11-04T02:15:41.952Z,78.83
2022-11-04T02:18:17.680Z,78.66
2022-11-04T02:21:11.654Z,78.84
2022-11-04T02:24:10.452Z,78.89
2022-11-04T02:27:03.919Z,78.79
2022-11-04T02:29:45.269Z,78.77
2022-11-04T02:32:36.213Z,79.17
2022-11-04T02:35:36.370Z,79.10
2022-11-04T02:38:29.444Z,79.41
2022-11-04T02:41:22.278Z,78.85
2022-11-04T02:44:17.988Z,79.54
2022-11-04T02:47:00.155Z,79.72
2022-11-04T02:49:41.625Z,79.64
2022-11-04T02:52:16.267Z,79.79
2022-11-04T02:54:52.963Z,79.69
2022-11-04T02:57:24.359Z,79.77
2022-11-04T03:00:01.316Z,79.45
2022-11-04T03:02:39.417Z,78.98
2022-11-04T03:05:09.293Z,79.26
2022-11-04T03:07:40.383Z,78.99
2022-11-04T03:10:22.854Z,79.32
2022-11-04T03:13:02.416Z,79.64
2022-11-04T03:15:33.839Z,79.29
2022-11-04T03:18:28.204Z,79.45
2022-11-04T03:20:58.347Z,79.54
2022-11-04T03:23:24.904Z,79.39
2022-11-04T03:25:56.617Z,79.64
2022-11-04T03:28:55.320Z,79.51
2022-11-04T03:31:38.734Z,80.00
2022-11-04T03:34:05.686Z,79.68
2022-11-04T03:36:32.425Z,79.58
2022-11-04T03:38:59.049Z,79.57
2022-11-04T03:41:35.499Z,79.56
2022-11-04T03:44:02.178Z,79.33
2022-11-04T03:46:29.064Z,79.15
2022-11-04T03:48:56.592Z,78.86
2022-11-04T03:51:23.163Z,78.87
2022-11-04T03:53:49.815Z,78.83
2022-11-04T03:56:31.613Z,78.49
2022-11-04T03:59:38.942Z,78.05
2022-11-04T04:02:22.639Z,77.93
2022-11-04T04:05:15.997Z,77.84
2022-11-04T04:07:52.580Z,77.95
2022-11-04T04:10:40.807Z,77.82
2022-11-04T04:13:19.270Z,77.69
2022-11-04T04:16:03.350Z,77.35
2022-11-04T04:18:36.301Z,76.96
2022-11-04T04:21:06.928Z,77.06
2022-11-04T04:23:54.198Z,77.20
2022-11-04T04:26:42.292Z,76.95
2022-11-04T04:29:10.368Z,77.21
2022-11-04T04:31:51.003Z,76.86
2022-11-04T04:34:21.609Z,76.94
2022-11-04T04:37:09.142Z,76.81
2022-11-04T04:40:23.856Z,77.03
2022-11-04T04:43:11.427Z,77.41
2022-11-04T04:45:42.311Z,77.02
2022-11-04T04:48:11.950Z,77.12
2022-11-04T04:50:42.493Z,76.94
2022-11-04T04:53:09.553Z,77.39
2022-11-04T04:55:40.654Z,77.10
2022-11-04T04:58:09.242Z,77.25
2022-11-04T05:00:35.771Z,77.24
2022-11-04T05:03:02.387Z,77.51
2022-11-04T05:05:28.953Z,77.76
2022-11-04T05:07:55.594Z,77.43
2022-11-04T05:10:22.183Z,77.55
2022-11-04T05:13:07.213Z,77.04
2022-11-04T05:15:34.767Z,77.45
2022-11-04T05:18:03.559Z,77.20
2022-11-04T05:20:32.871Z,77.19
2022-11-04T05:23:00.063Z,77.28
2022-11-04T05:25:42.379Z,77.42
2022-11-04T05:28:09.759Z,77.42
2022-11-04T05:30:37.921Z,77.78
2022-11-04T05:33:05.253Z,77.64
2022-11-04T05:35:34.793Z,77.64
2022-11-04T05:38:01.373Z,77.89
2022-11-04T05:40:27.921Z,77.88
2022-11-04T05:42:57.776Z,78.03
2022-11-04T05:45:24.451Z,78.31
2022-11-04T05:47:58.406Z,78.50
2022-11-04T05:50:25.237Z,78.82
2022-11-04T05:52:51.904Z,78.85
2022-11-04T05:55:18.647Z,78.74
2022-11-04T05:57:45.262Z,78.72
2022-11-04T06:00:13.873Z,78.90
2022-11-04T06:02:40.722Z,78.98
2022-11-04T06:05:08.168Z,78.88
2022-11-04T06:07:36.006Z,78.86
2022-11-04T06:10:02.892Z,79.26
2022-11-04T06:12:29.486Z,79.18
2022-11-04T06:14:56.047Z,79.24
2022-11-04T06:17:23.013Z,78.82
2022-11-04T06:19:50.113Z,78.92
2022-11-04T06:22:19.387Z,79.14
2022-11-04T06:24:46.327Z,79.10
2022-11-04T06:27:16.049Z,78.98
2022-11-04T06:29:44.355Z,78.78
2022-11-04T06:32:17.427Z,78.58
2022-11-04T06:34:46.045Z,78.56
2022-11-04T06:37:13.813Z,78.53
2022-11-04T06:39:40.565Z,78.71
2022-11-04T06:42:07.202Z,79.26
2022-11-04T06:44:37.019Z,79.08
2022-11-04T06:47:06.133Z,79.48
2022-11-04T06:49:33.759Z,79.10
2022-11-04T06:52:02.769Z,78.42
2022-11-04T06:54:30.253Z,77.40
2022-11-04T06:56:58.796Z,77.45
2022-11-04T06:59:25.452Z,77.72
2022-11-04T07:01:52.528Z,77.78
2022-11-04T07:04:19.498Z,77.96
2022-11-04T07:06:46.754Z,78.01
2022-11-04T07:09:15.283Z,78.02
2022-11-04T07:11:43.386Z,77.85
2022-11-04T07:14:10.972Z,77.93
2022-11-04T07:16:37.586Z,78.12
2022-11-04T07:19:04.874Z,77.90
2022-11-04T07:21:31.604Z,77.80
2022-11-04T07:23:58.411Z,77.63
2022-11-04T07:26:25.277Z,77.63
2022-11-04T07:28:51.860Z,77.80
2022-11-04T07:31:18.583Z,77.58
2022-11-04T07:33:49.950Z,77.65
2022-11-04T07:36:17.425Z,77.75
2022-11-04T07:38:44.297Z,77.58
2022-11-04T07:41:11.521Z,77.55
2022-11-04T07:43:38.102Z,77.61
2022-11-04T07:46:11.009Z,77.43
2022-11-04T07:48:37.723Z,77.57
2022-11-04T07:51:06.380Z,77.59
2022-11-04T07:53:33.093Z,78.17
2022-11-04T07:56:07.319Z,78.36
2022-11-04T07:58:35.105Z,78.39
2022-11-04T08:01:07.336Z,78.46
2022-11-04T08:03:35.296Z,78.35
2022-11-04T08:06:05.090Z,78.32
2022-11-04T08:08:31.778Z,78.38
2022-11-04T08:11:11.438Z,78.22
2022-11-04T08:13:41.334Z,78.42
2022-11-04T08:16:13.200Z,78.90
2022-11-04T08:18:40.863Z,78.63
2022-11-04T08:21:08.085Z,78.83
2022-11-04T08:23:35.446Z,78.65
2022-11-04T08:26:02.078Z,78.82
2022-11-04T08:28:29.602Z,79.09
2022-11-04T08:31:04.490Z,79.03
2022-11-04T08:33:33.313Z,79.01
2022-11-04T08:36:03.294Z,78.96
2022-11-04T08:38:29.943Z,79.04
2022-11-04T08:40:59.980Z,79.19
2022-11-04T08:43:27.224Z,79.34
2022-11-04T08:45:55.415Z,79.46
2022-11-04T08:48:22.091Z,79.54
2022-11-04T08:50:54.135Z,79.83
2022-11-04T08:53:20.847Z,79.89
2022-11-04T08:55:48.027Z,79.70
2022-11-04T08:58:15.216Z,80.05
2022-11-04T09:00:41.753Z,80.17
2022-11-04T09:03:08.663Z,80.03
2022-11-04T09:05:49.007Z,79.92
2022-11-04T09:08:17.054Z,79.58
2022-11-04T09:10:47.978Z,79.82
2022-11-04T09:13:15.829Z,79.73
2022-11-04T09:15:42.845Z,79.79
2022-11-04T09:18:09.644Z,80.10
2022-11-04T09:20:39.580Z,79.76
2022-11-04T09:23:07.010Z,79.70
2022-11-04T09:25:34.522Z,79.42
2022-11-04T09:28:01.169Z,79.66
2022-11-04T09:30:27.870Z,79.83
2022-11-04T09:32:54.430Z,79.82
2022-11-04T09:35:21.114Z,79.84
2022-11-04T09:37:47.601Z,79.68
2022-11-04T09:40:17.505Z,79.90
2022-11-04T09:42:47.031Z,79.77
2022-11-04T09:45:22.200Z,80.05
2022-11-04T09:47:52.747Z,79.99
2022-11-04T09:50:47.731Z,80.00
2022-11-04T09:53:23.928Z,80.37
2022-11-04T09:56:19.700Z,80.40
2022-11-04T09:58:47.054Z,80.19
2022-11-04T10:01:38.319Z,80.56
2022-11-04T10:04:29.802Z,80.30
2022-11-04T10:07:11.421Z,80.51
2022-11-04T10:10:05.057Z,80.45
2022-11-04T10:12:40.772Z,80.11
2022-11-04T10:15:38.282Z,80.02
2022-11-04T10:18:34.262Z,80.16
2022-11-04T10:21:15.175Z,80.12
2022-11-04T10:24:09.651Z,80.31
2022-11-04T10:26:45.516Z,80.51
2022-11-04T10:29:20.562Z,80.46
2022-11-04T10:31:48.191Z,80.79
2022-11-04T10:34:47.956Z,80.53
2022-11-04T10:37:14.709Z,80.65
2022-11-04T10:39:46.558Z,80.48
2022-11-04T10:42:17.362Z,80.95
2022-11-04T10:44:46.547Z,80.50
2022-11-04T10:47:36.432Z,80.76
2022-11-04T10:50:28.494Z,80.56
2022-11-04T10:53:18.964Z,80.63
2022-11-04T10:55:54.713Z,80.46
2022-11-04T10:58:24.604Z,80.90
2022-11-04T11:00:51.953Z,80.91
2022-11-04T11:03:26.495Z,80.79
2022-11-04T11:05:54.624Z,81.23
2022-11-04T11:08:31.607Z,81.01
2022-11-04T11:10:58.614Z,81.00
2022-11-04T11:13:38.995Z,81.12
2022-11-04T11:16:20.908Z,81.22
2022-11-04T11:19:18.175Z,80.77
2022-11-04T11:21:50.565Z,80.97
2022-11-04T11:24:26.236Z,81.23
2022-11-04T11:26:55.271Z,82.09
2022-11-04T11:29:26.549Z,81.92
2022-11-04T11:31:56.515Z,81.95
2022-11-04T11:34:34.786Z,82.01
2022-11-04T11:37:05.639Z,81.78
2022-11-04T11:39:34.905Z,82.04
2022-11-04T11:42:06.293Z,81.43
2022-11-04T11:44:44.557Z,81.06
2022-11-04T11:47:21.806Z,80.82
2022-11-04T11:50:24.543Z,80.77
2022-11-04T11:52:52.861Z,80.75
2022-11-04T11:55:27.789Z,80.39
2022-11-04T12:01:30.881Z,80.40
2022-11-04T12:09:54.355Z,79.83
2022-11-04T12:12:50.319Z,79.42
2022-11-04T12:15:29.316Z,79.48
2022-11-04T12:18:11.200Z,79.29
2022-11-04T12:21:03.671Z,79.54
2022-11-04T12:23:51.123Z,79.63
2022-11-04T12:26:53.693Z,79.53
2022-11-04T12:30:03.999Z,79.77
2022-11-04T12:32:33.597Z,79.85
2022-11-04T12:35:25.306Z,80.14
2022-11-04T12:37:54.819Z,79.83
2022-11-04T12:40:30.501Z,79.64
2022-11-04T12:42:57.004Z,80.32
2022-11-04T12:45:41.797Z,80.23
2022-11-04T12:48:17.072Z,80.73
2022-11-04T12:51:37.642Z,80.47
2022-11-04T12:54:31.487Z,80.21
2022-11-04T12:57:25.800Z,80.27
2022-11-04T13:00:09.864Z,79.99
2022-11-04T13:03:10.875Z,80.75
2022-11-04T13:05:57.479Z,80.58
2022-11-04T13:08:41.489Z,80.90
2022-11-04T13:11:45.220Z,81.07
2022-11-04T13:14:19.228Z,81.05
2022-11-04T13:16:49.984Z,81.14
2022-11-04T13:19:25.551Z,81.27
2022-11-04T13:21:54.910Z,81.69
2022-11-04T13:24:33.211Z,81.66
2022-11-04T13:27:04.184Z,81.81
2022-11-04T13:29:34.487Z,81.88
2022-11-04T13:32:14.821Z,81.79
2022-11-04T13:35:21.429Z,81.89
2022-11-04T13:37:58.077Z,82.14
2022-11-04T13:40:39.827Z,82.08
2022-11-04T13:43:37.228Z,82.81
2022-11-04T13:46:26.267Z,82.77
2022-11-04T13:48:58.850Z,83.01
2022-11-04T13:51:35.585Z,82.41
2022-11-04T13:54:03.164Z,82.21
2022-11-04T13:56:36.349Z,82.05
2022-11-04T13:59:06.400Z,82.16
2022-11-04T14:01:37.510Z,82.46
2022-11-04T14:04:13.383Z,82.84
2022-11-04T14:06:53.817Z,82.76
2022-11-04T14:09:29.159Z,82.86
2022-11-04T14:12:10.982Z,83.06
2022-11-04T14:14:38.955Z,83.17
2022-11-04T14:17:34.288Z,82.95
2022-11-04T14:20:11.488Z,83.30
2022-11-04T14:22:44.128Z,83.37
2022-11-04T14:25:29.618Z,83.28
2022-11-04T14:28:01.951Z,82.88
2022-11-04T14:31:08.156Z,83.00
2022-11-04T14:33:51.787Z,83.25
2022-11-04T14:36:21.268Z,82.78
2022-11-04T14:38:59.612Z,82.61
2022-11-04T14:41:29.039Z,82.65
2022-11-04T14:43:59.094Z,82.96
2022-11-04T14:46:31.596Z,82.99
2022-11-04T14:49:01.752Z,82.97
2022-11-04T14:51:33.298Z,83.00
2022-11-04T14:54:13.156Z,83.06
2022-11-04T14:56:41.531Z,82.98
2022-11-04T14:59:18.665Z,83.05
2022-11-04T15:01:45.658Z,83.30
2022-11-04T15:04:27.364Z,83.38
2022-11-04T15:06:55.901Z,83.28
2022-11-04T15:09:25.476Z,83.50
2022-11-04T15:12:20.806Z,83.13
2022-11-04T15:14:47.488Z,83.41
2022-11-04T15:17:20.588Z,83.36
2022-11-04T15:19:50.960Z,83.30
2022-11-04T15:22:18.937Z,83.31
2022-11-04T15:25:17.477Z,84.22
2022-11-04T15:27:44.930Z,84.11
2022-11-04T15:30:26.665Z,83.54
2022-11-04T15:33:07.804Z,82.76
2022-11-04T15:35:35.526Z,82.72
2022-11-04T15:38:03.738Z,82.96
2022-11-04T15:40:39.816Z,82.49
2022-11-04T15:43:07.177Z,82.82
2022-11-04T15:45:56.136Z,83.17
2022-11-04T15:48:33.996Z,83.07
2022-11-04T15:51:21.460Z,83.50
2022-11-04T15:53:52.859Z,83.13
2022-11-04T15:56:41.496Z,83.55
2022-11-04T15:59:18.532Z,84.11
2022-11-04T16:01:50.385Z,83.78
2022-11-04T16:04:20.039Z,83.80
2022-11-04T16:06:49.175Z,83.67
2022-11-04T16:09:15.696Z,83.42
2022-11-04T16:12:09.224Z,83.48
2022-11-04T16:14:36.143Z,83.44
2022-11-04T16:17:03.317Z,83.64
2022-11-04T16:19:32.125Z,83.52
2022-11-04T16:22:09.699Z,83.68
2022-11-04T16:24:41.578Z,83.60
2022-11-04T16:27:10.691Z,83.68
2022-11-04T16:29:39.904Z,83.75
2022-11-04T16:32:39.497Z,83.55
2022-11-04T16:35:14.121Z,83.39
2022-11-04T16:37:40.784Z,83.12
2022-11-04T16:40:08.087Z,83.38
2022-11-04T16:42:34.787Z,83.15
2022-11-04T16:45:03.358Z,83.39
2022-11-04T16:47:30.964Z,82.86
2022-11-04T16:50:01.962Z,82.92
2022-11-04T16:52:28.730Z,82.97
2022-11-04T16:54:56.281Z,82.89
2022-11-04T16:57:24.491Z,82.72
2022-11-04T16:59:51.187Z,82.74
2022-11-04T17:02:28.216Z,82.75
2022-11-04T17:04:55.100Z,82.65
2022-11-04T17:07:30.476Z,82.63
2022-11-04T17:10:19.986Z,82.01
2022-11-04T17:12:47.141Z,81.94
2022-11-04T17:15:15.340Z,81.84
2022-11-04T17:17:42.538Z,81.51
2022-11-04T17:20:13.968Z,81.21
2022-11-04T17:22:41.142Z,81.24
2022-11-04T17:25:21.308Z,80.89
2022-11-04T17:27:48.803Z,81.19
2022-11-04T17:30:16.922Z,81.19
2022-11-04T17:32:45.000Z,81.83
2022-11-04T17:35:12.459Z,82.57
2022-11-04T17:37:39.097Z,82.14
2022-11-04T17:40:07.406Z,82.73
2022-11-04T17:42:52.722Z,82.19
2022-11-04T17:45:19.499Z,83.34
2022-11-04T17:47:46.469Z,83.28
2022-11-04T17:50:13.996Z,82.77
2022-11-04T17:53:05.912Z,82.33
2022-11-04T17:55:38.756Z,81.72
2022-11-04T17:58:05.291Z,81.17
2022-11-04T18:00:31.888Z,80.86
2022-11-04T18:02:58.437Z,80.76
2022-11-04T18:05:25.031Z,80.30
2022-11-04T18:07:53.752Z,80.07
2022-11-04T18:10:20.509Z,79.82
2022-11-04T18:12:47.185Z,79.18
2022-11-04T18:15:17.046Z,78.93
2022-11-04T18:17:45.503Z,79.10
2022-11-04T18:20:15.370Z,79.17
2022-11-04T18:22:42.880Z,79.45
2022-11-04T18:25:10.364Z,79.32
2022-11-04T18:27:37.192Z,79.21
2022-11-04T18:30:06.666Z,78.99
2022-11-04T18:32:33.443Z,78.64
2022-11-04T18:35:09.147Z,79.03
2022-11-04T18:37:35.860Z,79.36
2022-11-04T18:40:02.577Z,79.48
2022-11-04T18:42:29.210Z,79.70
2022-11-04T18:44:55.852Z,79.48
2022-11-04T18:47:24.009Z,79.90
2022-11-04T18:49:50.804Z,79.98
2022-11-04T18:52:17.376Z,80.44
2022-11-04T18:54:44.546Z,81.28
2022-11-04T18:57:11.985Z,81.41
2022-11-04T18:59:38.840Z,81.26
2022-11-04T19:02:06.724Z,81.04
2022-11-04T19:04:33.658Z,80.64
2022-11-04T19:07:00.284Z,79.93
2022-11-04T19:12:32.132Z,78.72
2022-11-04T19:14:58.757Z,77.09
2022-11-04T19:17:25.404Z,76.21
2022-11-04T19:19:51.991Z,75.26
2022-11-04T19:22:18.608Z,74.78
2022-11-04T19:24:46.024Z,74.42
2022-11-04T19:27:12.730Z,74.35
2022-11-04T19:29:39.543Z,74.13
2022-11-04T19:32:11.045Z,74.41
2022-11-04T19:34:39.516Z,75.00
2022-11-04T19:37:06.112Z,74.49
2022-11-04T19:39:32.733Z,73.68
2022-11-04T19:42:17.843Z,73.35
2022-11-04T19:44:44.487Z,73.16
2022-11-04T19:47:11.150Z,72.05
2022-11-04T19:49:37.774Z,71.57
2022-11-04T19:52:04.677Z,71.22
2022-11-04T19:54:31.313Z,70.83
2022-11-04T19:56:58.033Z,71.21
2022-11-04T19:59:25.557Z,70.60
2022-11-04T20:01:52.369Z,69.98
2022-11-04T20:04:19.278Z,69.34
2022-11-04T20:06:46.081Z,69.33
2022-11-04T20:09:12.863Z,68.42
2022-11-04T20:12:00.562Z,68.77
2022-11-04T20:14:28.785Z,68.52
2022-11-04T20:16:56.778Z,68.40
2022-11-04T20:19:23.693Z,68.57
2022-11-04T20:21:52.185Z,67.91
2022-11-04T20:24:30.752Z,68.06
2022-11-04T20:27:02.712Z,67.70
2022-11-04T20:29:29.740Z,68.09
2022-11-04T20:31:56.896Z,67.83
2022-11-04T20:34:27.621Z,67.69
2022-11-04T20:36:56.997Z,67.69
2022-11-04T20:39:23.831Z,67.94
2022-11-04T20:42:08.209Z,68.49
2022-11-04T20:44:34.909Z,69.19
2022-11-04T20:47:01.695Z,69.11
2022-11-04T20:49:53.610Z,69.09
2022-11-04T20:52:20.455Z,69.05
2022-11-04T20:54:47.112Z,68.63
2022-11-04T20:57:13.912Z,68.51
2022-11-04T20:59:40.794Z,69.79
2022-11-04T21:02:08.729Z,70.20
2022-11-04T21:04:36.513Z,70.34
2022-11-04T21:07:03.596Z,70.88
2022-11-04T21:09:30.537Z,70.54
2022-11-04T21:11:58.265Z,69.95
2022-11-04T21:14:24.944Z,69.73
2022-11-04T21:16:51.640Z,69.73
2022-11-04T21:19:20.070Z,69.10
2022-11-04T21:21:47.470Z,69.51
2022-11-04T21:24:16.037Z,69.67
2022-11-04T21:26:43.857Z,69.49
2022-11-04T21:29:14.080Z,69.45
2022-11-04T21:31:44.336Z,69.27
2022-11-04T21:34:11.276Z,69.62
2022-11-04T21:36:39.572Z,69.04
2022-11-04T21:39:06.412Z,69.01
2022-11-04T21:41:33.786Z,68.89
2022-11-04T21:44:02.218Z,68.58
2022-11-04T21:46:31.251Z,68.78
2022-11-04T21:48:58.882Z,69.07
2022-11-04T21:51:29.094Z,69.00
2022-11-04T21:53:56.517Z,69.26
2022-11-04T21:56:29.938Z,69.22
2022-11-04T21:58:56.862Z,69.08
2022-11-04T22:04:16.571Z,69.73
2022-11-04T22:06:43.229Z,69.98
2022-11-04T22:09:09.877Z,70.03
2022-11-04T22:11:39.062Z,70.50
2022-11-04T22:14:08.141Z,70.00
2022-11-04T22:16:36.934Z,70.11
2022-11-04T22:19:05.677Z,69.79
2022-11-04T22:21:33.118Z,70.35
2022-11-04T22:24:00.641Z,70.22
2022-11-04T22:26:29.840Z,70.17
2022-11-04T22:28:56.783Z,70.31
2022-11-04T22:31:25.256Z,70.65
2022-11-04T22:33:52.702Z,70.57
2022-11-04T22:36:20.039Z,70.56
2022-11-04T22:38:47.037Z,70.19
2022-11-04T22:41:17.723Z,70.28
2022-11-04T22:43:47.535Z,70.58
2022-11-04T22:46:25.714Z,70.50
2022-11-04T22:48:52.520Z,70.58
2022-11-04T22:51:19.895Z,70.79
2022-11-04T22:53:48.996Z,70.75
2022-11-04T22:56:19.382Z,71.15
2022-11-04T22:58:46.107Z,70.99
2022-11-04T23:01:15.210Z,71.02
2022-11-04T23:03:42.169Z,71.33
2022-11-04T23:06:10.297Z,71.08
2022-11-04T23:08:37.731Z,71.31
2022-11-04T23:11:27.089Z,71.33
2022-11-04T23:14:20.432Z,71.75
2022-11-04T23:17:09.325Z,71.40
2022-11-04T23:19:37.589Z,71.52
2022-11-04T23:22:23.087Z,71.25
2022-11-04T23:25:10.872Z,71.67
2022-11-04T23:28:01.578Z,71.91
2022-11-04T23:30:31.959Z,72.28
2022-11-04T23:33:04.619Z,71.92
2022-11-04T23:35:56.463Z,71.76
2022-11-04T23:38:24.106Z,72.19
2022-11-04T23:41:13.365Z,72.24
2022-11-04T23:43:40.146Z,72.76
2022-11-04T23:46:25.249Z,72.15
2022-11-04T23:49:10.344Z,72.27
2022-11-04T23:51:55.485Z,72.05
2022-11-04T23:54:40.822Z,72.20
2022-11-04T23:57:36.850Z,72.01
